createdAt,value
2023-04-27T00:00:42.017Z,4.27
2023-04-27T00:03:46.573Z,4.57
2023-04-27T00:06:50.649Z,5.00
2023-04-27T00:09:54.236Z,4.03
2023-04-27T00:12:57.798Z,4.77
2023-04-27T00:16:03.985Z,4.87
2023-04-27T00:19:09.056Z,4.70
2023-04-27T00:22:12.720Z,5.53
2023-04-27T00:25:16.522Z,4.90
2023-04-27T00:28:20.265Z,5.23
2023-04-27T00:31:25.346Z,5.53
2023-04-27T00:34:29.005Z,4.87
2023-04-27T00:37:32.671Z,6.30
2023-04-27T00:40:36.346Z,6.07
2023-04-27T00:43:44.713Z,6.07
2023-04-27T00:46:49.741Z,6.80
2023-04-27T00:49:53.516Z,6.07
2023-04-27T00:52:58.172Z,7.00
2023-04-27T00:56:01.994Z,6.23
2023-04-27T00:59:05.708Z,6.33
2023-04-27T01:02:12.646Z,6.60
2023-04-27T01:05:16.752Z,5.87
2023-04-27T01:08:20.533Z,6.77
2023-04-27T01:11:24.109Z,6.00
2023-04-27T01:14:27.927Z,5.70
2023-04-27T01:17:32.939Z,6.60
2023-04-27T01:20:36.576Z,5.87
2023-04-27T01:23:41.572Z,6.07
2023-04-27T01:26:45.136Z,5.23
2023-04-27T01:29:48.934Z,5.67
2023-04-27T01:32:52.585Z,5.33
2023-04-27T01:35:56.238Z,5.60
2023-04-27T01:39:01.214Z,5.93
2023-04-27T01:42:05.126Z,5.17
2023-04-27T01:45:10.788Z,5.37
2023-04-27T01:48:14.500Z,5.67
2023-04-27T01:51:18.062Z,5.63
2023-04-27T01:54:23.092Z,5.33
2023-04-27T01:57:26.929Z,5.47
2023-04-27T02:00:30.793Z,5.27
2023-04-27T02:03:34.611Z,6.50
2023-04-27T02:06:38.369Z,6.73
2023-04-27T02:09:43.296Z,5.50
2023-04-27T02:12:46.916Z,5.63
2023-04-27T02:15:50.655Z,6.43
2023-04-27T02:18:54.641Z,6.47
2023-04-27T02:21:58.569Z,6.20
2023-04-27T02:25:03.637Z,7.13
2023-04-27T02:28:07.266Z,6.63
2023-04-27T02:31:12.345Z,7.70
2023-04-27T02:34:16.001Z,6.87
2023-04-27T02:37:19.614Z,7.93
2023-04-27T02:40:24.785Z,7.33
2023-04-27T02:43:28.569Z,6.97
2023-04-27T02:46:32.598Z,7.37
2023-04-27T02:49:38.032Z,6.93
2023-04-27T02:52:41.815Z,7.37
2023-04-27T02:55:49.262Z,7.40
2023-04-27T02:58:52.837Z,7.07
2023-04-27T03:01:56.399Z,7.17
2023-04-27T03:05:00.064Z,6.27
2023-04-27T03:08:05.252Z,7.00
2023-04-27T03:11:10.603Z,6.53
2023-04-27T03:14:14.458Z,6.90
2023-04-27T03:17:18.050Z,6.60
2023-04-27T03:20:23.090Z,6.73
2023-04-27T03:23:26.608Z,6.00
2023-04-27T03:26:31.701Z,6.67
2023-04-27T03:29:35.333Z,6.37
2023-04-27T03:32:39.037Z,5.90
2023-04-27T03:35:42.801Z,6.03
2023-04-27T03:38:46.351Z,6.57
2023-04-27T03:41:51.505Z,6.63
2023-04-27T03:44:55.115Z,6.33
2023-04-27T03:47:58.786Z,7.37
2023-04-27T03:51:02.594Z,6.57
2023-04-27T03:54:06.556Z,6.83
2023-04-27T03:57:11.588Z,6.93
2023-04-27T04:00:16.622Z,6.57
2023-04-27T04:03:20.472Z,6.43
2023-04-27T04:06:24.145Z,6.43
2023-04-27T04:09:27.784Z,6.20
2023-04-27T04:12:32.734Z,6.47
2023-04-27T04:15:36.453Z,6.07
2023-04-27T04:18:40.044Z,6.83
2023-04-27T04:21:43.765Z,6.20
2023-04-27T04:24:47.382Z,6.10
2023-04-27T04:27:52.404Z,7.10
2023-04-27T04:30:56.871Z,6.40
2023-04-27T04:34:01.516Z,6.13
2023-04-27T04:37:05.525Z,6.20
2023-04-27T04:40:10.990Z,6.77
2023-04-27T04:43:16.192Z,6.83
2023-04-27T04:46:20.274Z,6.07
2023-04-27T04:49:24.159Z,7.63
2023-04-27T04:52:27.946Z,7.23
2023-04-27T04:55:31.648Z,6.63
2023-04-27T04:58:36.644Z,7.67
2023-04-27T05:01:40.324Z,6.87
2023-04-27T05:04:44.016Z,7.10
2023-04-27T05:07:47.906Z,6.67
2023-04-27T05:10:51.911Z,7.00
2023-04-27T05:13:56.942Z,7.00
2023-04-27T05:17:00.528Z,6.47
2023-04-27T05:20:05.357Z,7.00
2023-04-27T05:23:09.102Z,6.47
2023-04-27T05:26:16.817Z,6.33
2023-04-27T05:29:21.962Z,7.90
2023-04-27T05:32:25.793Z,7.90
2023-04-27T05:35:29.847Z,8.13
2023-04-27T05:38:36.178Z,7.70
2023-04-27T05:41:40.025Z,7.20
2023-04-27T05:44:45.079Z,6.37
2023-04-27T05:47:48.778Z,6.90
2023-04-27T05:51:01.805Z,7.17
2023-04-27T05:54:05.731Z,7.30
2023-04-27T05:57:09.876Z,7.80
2023-04-27T06:00:17.666Z,7.00
2023-04-27T06:03:21.746Z,7.33
2023-04-27T06:06:26.367Z,6.37
2023-04-27T06:09:31.425Z,6.87
2023-04-27T06:12:34.988Z,6.33
2023-04-27T06:15:40.185Z,6.93
2023-04-27T06:18:44.312Z,6.47
2023-04-27T06:21:48.042Z,6.63
2023-04-27T06:24:51.629Z,6.40
2023-04-27T06:27:55.374Z,6.53
2023-04-27T06:31:00.370Z,5.50
2023-04-27T06:34:04.579Z,4.77
2023-04-27T06:37:08.907Z,5.10
2023-04-27T06:40:13.530Z,5.00
2023-04-27T06:43:17.332Z,4.73
2023-04-27T06:46:22.513Z,4.20
2023-04-27T06:49:26.826Z,4.33
2023-04-27T06:52:33.381Z,4.13
2023-04-27T06:55:37.312Z,3.73
2023-04-27T06:58:41.159Z,3.57
2023-04-27T07:01:46.309Z,3.33
2023-04-27T07:04:50.329Z,3.90
2023-04-27T07:07:54.193Z,4.83
2023-04-27T07:10:58.090Z,4.27
2023-04-27T07:14:02.680Z,3.70
2023-04-27T07:17:07.901Z,3.40
2023-04-27T07:20:12.003Z,3.67
2023-04-27T07:23:16.546Z,3.10
2023-04-27T07:26:20.104Z,3.47
2023-04-27T07:29:27.425Z,3.13
2023-04-27T07:32:32.695Z,2.93
2023-04-27T07:35:36.481Z,3.13
2023-04-27T07:38:40.093Z,3.10
2023-04-27T07:41:43.693Z,3.20
2023-04-27T07:44:47.493Z,2.30
2023-04-27T07:47:53.529Z,2.60
2023-04-27T07:50:57.461Z,1.37
2023-04-27T07:54:02.225Z,1.33
2023-04-27T07:57:10.522Z,1.60
2023-04-27T08:00:16.165Z,1.57
2023-04-27T08:03:22.913Z,1.90
2023-04-27T08:06:28.767Z,2.10
2023-04-27T08:09:33.418Z,1.73
2023-04-27T08:12:37.445Z,1.90
2023-04-27T08:15:41.752Z,1.90
2023-04-27T08:18:47.361Z,1.87
2023-04-27T08:21:51.173Z,2.63
2023-04-27T08:24:54.880Z,2.10
2023-04-27T08:27:58.507Z,2.30
2023-04-27T08:31:02.144Z,2.20
2023-04-27T08:34:07.552Z,2.40
2023-04-27T08:37:11.291Z,2.20
2023-04-27T08:40:15.597Z,2.10
2023-04-27T08:43:19.224Z,2.17
2023-04-27T08:46:25.254Z,1.87
2023-04-27T08:49:30.426Z,1.63
2023-04-27T08:52:34.213Z,2.17
2023-04-27T08:55:37.801Z,1.87
2023-04-27T08:58:41.720Z,2.57
2023-04-27T09:01:47.109Z,1.97
2023-04-27T09:04:52.528Z,2.10
2023-04-27T09:08:05.301Z,1.90
2023-04-27T09:11:09.128Z,2.40
2023-04-27T09:14:21.506Z,2.30
2023-04-27T09:17:28.280Z,2.00
2023-04-27T09:20:33.737Z,2.70
2023-04-27T09:23:39.569Z,2.63
2023-04-27T09:26:43.294Z,2.20
2023-04-27T09:29:47.016Z,2.87
2023-04-27T09:32:53.825Z,2.30
2023-04-27T09:36:00.597Z,1.93
2023-04-27T09:39:06.121Z,2.23
2023-04-27T09:42:10.015Z,2.37
2023-04-27T09:45:14.678Z,2.13
2023-04-27T09:48:19.631Z,2.20
2023-04-27T09:51:24.590Z,2.40
2023-04-27T09:54:33.259Z,2.40
2023-04-27T09:57:46.345Z,2.40
2023-04-27T10:01:07.305Z,2.53
2023-04-27T10:04:39.419Z,2.50
2023-04-27T10:07:46.754Z,2.23
2023-04-27T10:10:51.942Z,2.70
2023-04-27T10:13:56.662Z,2.93
2023-04-27T10:17:01.159Z,2.40
2023-04-27T10:20:09.121Z,2.80
2023-04-27T10:23:25.549Z,2.30
2023-04-27T10:26:29.937Z,2.63
2023-04-27T10:29:42.062Z,2.30
2023-04-27T10:32:54.286Z,2.10
2023-04-27T10:36:00.524Z,2.37
2023-04-27T10:39:16.964Z,2.70
2023-04-27T10:42:29.989Z,2.80
2023-04-27T10:45:36.008Z,2.43
2023-04-27T10:48:41.248Z,2.43
2023-04-27T10:51:44.964Z,3.07
2023-04-27T10:54:49.969Z,2.40
2023-04-27T10:57:56.384Z,2.23
2023-04-27T11:01:00.140Z,2.73
2023-04-27T11:04:05.501Z,2.80
2023-04-27T11:07:10.555Z,2.10
2023-04-27T11:10:19.730Z,2.10
2023-04-27T11:13:25.920Z,2.33
2023-04-27T11:16:32.037Z,1.77
2023-04-27T11:19:47.533Z,2.00
2023-04-27T11:22:51.452Z,1.97
2023-04-27T11:25:56.979Z,1.90
2023-04-27T11:29:05.559Z,2.33
2023-04-27T11:32:09.481Z,2.00
2023-04-27T11:35:13.778Z,2.80
2023-04-27T11:38:18.961Z,2.80
2023-04-27T11:41:24.414Z,2.63
2023-04-27T11:44:28.778Z,2.83
2023-04-27T11:47:34.364Z,2.53
2023-04-27T11:50:38.504Z,2.87
2023-04-27T11:53:42.857Z,2.70
2023-04-27T11:56:47.890Z,2.80
2023-04-27T11:59:52.025Z,2.30
2023-04-27T12:02:55.887Z,2.73
2023-04-27T12:06:16.088Z,2.03
2023-04-27T12:09:24.124Z,2.53
2023-04-27T12:12:29.435Z,2.67
2023-04-27T12:15:33.055Z,2.83
2023-04-27T12:18:36.675Z,2.70
2023-04-27T12:21:40.334Z,2.50
2023-04-27T12:24:44.248Z,3.00
2023-04-27T12:27:49.444Z,2.73
2023-04-27T12:30:53.194Z,2.93
2023-04-27T12:33:56.858Z,3.00
2023-04-27T12:37:01.111Z,3.30
2023-04-27T12:40:06.942Z,3.23
2023-04-27T12:43:12.883Z,2.60
2023-04-27T12:46:18.260Z,2.63
2023-04-27T12:49:22.044Z,2.80
2023-04-27T12:52:25.895Z,3.10
2023-04-27T12:55:33.673Z,3.03
2023-04-27T12:58:39.951Z,3.17
2023-04-27T13:01:43.715Z,3.20
2023-04-27T13:04:47.713Z,2.80
2023-04-27T13:07:51.554Z,2.90
2023-04-27T13:10:55.334Z,2.87
2023-04-27T13:14:02.124Z,2.73
2023-04-27T13:17:05.775Z,2.87
2023-04-27T13:20:11.046Z,4.13
2023-04-27T13:23:14.798Z,3.13
2023-04-27T13:26:19.115Z,3.87
2023-04-27T13:29:25.474Z,3.93
2023-04-27T13:32:29.315Z,3.53
2023-04-27T13:35:33.088Z,3.37
2023-04-27T13:38:37.145Z,3.07
2023-04-27T13:41:40.846Z,3.33
2023-04-27T13:44:45.779Z,3.57
2023-04-27T13:47:49.401Z,3.73
2023-04-27T13:50:53.030Z,2.90
2023-04-27T13:53:56.653Z,3.40
2023-04-27T13:57:00.232Z,3.83
2023-04-27T14:00:08.065Z,3.30
2023-04-27T14:03:12.024Z,3.93
2023-04-27T14:06:16.350Z,3.23
2023-04-27T14:09:20.424Z,3.23
2023-04-27T14:12:24.026Z,3.40
2023-04-27T14:15:29.270Z,3.23
2023-04-27T14:18:33.457Z,2.80
2023-04-27T14:21:37.141Z,3.90
2023-04-27T14:24:41.208Z,3.17
2023-04-27T14:27:45.670Z,2.97
2023-04-27T14:30:50.649Z,4.33
2023-04-27T14:33:54.262Z,3.37
2023-04-27T14:36:57.975Z,3.50
2023-04-27T14:40:03.282Z,3.50
2023-04-27T14:43:06.890Z,3.13
2023-04-27T14:46:20.231Z,3.80
2023-04-27T14:49:24.271Z,3.80
2023-04-27T14:52:29.145Z,3.00
2023-04-27T14:55:32.784Z,3.73
2023-04-27T14:58:36.618Z,3.50
2023-04-27T15:01:41.688Z,3.83
2023-04-27T15:04:45.431Z,3.63
2023-04-27T15:07:49.184Z,4.00
2023-04-27T15:10:53.997Z,3.30
2023-04-27T15:13:57.694Z,3.43
2023-04-27T15:17:02.695Z,3.30
2023-04-27T15:20:08.312Z,3.33
2023-04-27T15:23:11.985Z,3.37
2023-04-27T15:26:15.598Z,3.33
2023-04-27T15:29:19.199Z,3.83
2023-04-27T15:32:29.860Z,4.17
2023-04-27T15:35:33.762Z,4.33
2023-04-27T15:38:37.469Z,4.13
2023-04-27T15:41:41.678Z,4.10
2023-04-27T15:44:45.277Z,3.97
2023-04-27T15:47:50.289Z,4.03
2023-04-27T15:50:54.059Z,4.03
2023-04-27T15:53:57.681Z,4.33
2023-04-27T15:57:04.082Z,4.30
2023-04-27T16:00:10.468Z,4.10
2023-04-27T16:03:15.902Z,4.13
2023-04-27T16:06:19.734Z,4.53
2023-04-27T16:09:25.748Z,4.00
2023-04-27T16:12:30.780Z,3.77
2023-04-27T16:15:34.465Z,4.20
2023-04-27T16:18:39.512Z,4.07
2023-04-27T16:21:43.311Z,3.93
2023-04-27T16:24:47.400Z,4.50
2023-04-27T16:27:51.054Z,4.30
2023-04-27T16:30:54.758Z,5.47
2023-04-27T16:33:59.895Z,5.17
2023-04-27T16:37:03.522Z,5.00
2023-04-27T16:40:09.206Z,4.87
2023-04-27T16:43:12.896Z,6.03
2023-04-27T16:46:17.195Z,4.93
2023-04-27T16:49:22.348Z,5.17
2023-04-27T16:52:26.145Z,5.20
2023-04-27T16:55:31.285Z,5.30
2023-04-27T16:58:36.226Z,5.23
2023-04-27T17:01:40.471Z,5.87
2023-04-27T17:04:46.043Z,5.53
2023-04-27T17:07:49.794Z,5.90
2023-04-27T17:10:54.544Z,5.37
2023-04-27T17:13:58.163Z,4.90
2023-04-27T17:17:01.819Z,5.63
2023-04-27T17:20:09.425Z,5.47
2023-04-27T17:23:13.069Z,5.40
2023-04-27T17:26:19.944Z,5.30
2023-04-27T17:29:23.720Z,5.80
2023-04-27T17:32:27.348Z,6.77
2023-04-27T17:35:33.041Z,5.97
2023-04-27T17:38:37.173Z,4.93
2023-04-27T17:41:40.872Z,5.87
2023-04-27T17:44:44.601Z,5.67
2023-04-27T17:47:50.580Z,5.00
2023-04-27T17:50:55.798Z,5.33
2023-04-27T17:53:59.517Z,5.83
2023-04-27T17:57:03.188Z,5.67
2023-04-27T18:00:09.356Z,6.27
2023-04-27T18:03:13.454Z,6.80
2023-04-27T18:06:19.497Z,5.63
2023-04-27T18:09:23.581Z,6.00
2023-04-27T18:12:27.369Z,4.83
2023-04-27T18:15:35.997Z,5.63
2023-04-27T18:18:39.634Z,5.73
2023-04-27T18:21:44.956Z,6.23
2023-04-27T18:24:48.740Z,5.30
2023-04-27T18:27:55.559Z,5.37
2023-04-27T18:30:59.335Z,5.87
2023-04-27T18:34:03.127Z,5.67
2023-04-27T18:37:08.149Z,5.40
2023-04-27T18:40:13.590Z,6.10
2023-04-27T18:43:17.262Z,5.90
2023-04-27T18:46:21.189Z,6.00
2023-04-27T18:49:24.983Z,5.50
2023-04-27T18:52:30.156Z,5.87
2023-04-27T18:55:34.014Z,5.87
2023-04-27T18:58:37.974Z,5.77
2023-04-27T19:01:41.865Z,5.67
2023-04-27T19:04:52.951Z,5.60
2023-04-27T19:08:02.198Z,4.93
2023-04-27T19:11:05.841Z,5.63
2023-04-27T19:14:09.505Z,4.90
2023-04-27T19:17:13.121Z,5.17
2023-04-27T19:20:16.755Z,5.03
2023-04-27T19:23:21.944Z,5.27
2023-04-27T19:26:26.291Z,5.50
2023-04-27T19:29:31.429Z,5.27
2023-04-27T19:32:35.319Z,5.67
2023-04-27T19:35:39.214Z,4.90
2023-04-27T19:38:44.288Z,4.80
2023-04-27T19:41:47.919Z,5.13
2023-04-27T19:44:51.521Z,6.10
2023-04-27T19:47:55.665Z,4.87
2023-04-27T19:50:59.339Z,5.30
2023-04-27T19:54:04.489Z,5.17
2023-04-27T19:57:08.074Z,5.40
2023-04-27T20:00:13.269Z,5.70
2023-04-27T20:03:17.150Z,5.30
2023-04-27T20:06:21.770Z,5.70
2023-04-27T20:09:26.839Z,5.50
2023-04-27T20:15:38.872Z,5.47
2023-04-27T20:18:45.310Z,6.37
2023-04-27T20:21:49.051Z,5.33
2023-04-27T20:24:59.070Z,5.57
2023-04-27T20:28:02.915Z,5.00
2023-04-27T20:31:07.083Z,5.50
2023-04-27T20:34:11.361Z,5.50
2023-04-27T20:37:17.340Z,6.07
2023-04-27T20:40:22.939Z,5.70
2023-04-27T20:43:27.411Z,6.13
2023-04-27T20:46:34.250Z,6.23
2023-04-27T20:49:38.020Z,5.90
2023-04-27T20:52:41.792Z,6.20
2023-04-27T20:55:47.412Z,5.67
2023-04-27T20:58:51.050Z,6.43
2023-04-27T21:01:54.815Z,7.67
2023-04-27T21:04:58.614Z,6.87
2023-04-27T21:08:02.353Z,7.43
2023-04-27T21:11:07.751Z,7.53
2023-04-27T21:14:11.344Z,6.57
2023-04-27T21:17:15.334Z,6.60
2023-04-27T21:20:19.347Z,7.07
2023-04-27T21:23:23.057Z,6.57
2023-04-27T21:26:28.035Z,7.23
2023-04-27T21:29:31.686Z,7.80
2023-04-27T21:32:35.285Z,7.73
2023-04-27T21:35:38.805Z,8.37
2023-04-27T21:38:42.376Z,8.30
2023-04-27T21:41:47.302Z,8.07
2023-04-27T21:44:50.925Z,8.23
2023-04-27T21:47:54.737Z,7.87
2023-04-27T21:50:58.306Z,8.03
2023-04-27T21:54:02.249Z,8.37
2023-04-27T21:57:07.480Z,8.33
2023-04-27T22:00:14.603Z,7.97
2023-04-27T22:03:18.358Z,8.57
2023-04-27T22:06:22.076Z,8.53
2023-04-27T22:09:25.677Z,8.30
2023-04-27T22:12:30.733Z,7.77
2023-04-27T22:15:34.853Z,9.23
2023-04-27T22:18:38.963Z,7.97
2023-04-27T22:21:42.578Z,8.97
2023-04-27T22:24:46.441Z,9.10
2023-04-27T22:27:51.496Z,9.47
2023-04-27T22:30:56.707Z,8.63
2023-04-27T22:34:00.539Z,9.07
2023-04-27T22:37:04.437Z,9.17
2023-04-27T22:40:10.294Z,9.73
2023-04-27T22:43:15.433Z,9.40
2023-04-27T22:46:19.047Z,9.07
2023-04-27T22:49:22.986Z,9.70
2023-04-27T22:52:26.864Z,8.87
2023-04-27T22:55:30.799Z,9.43
2023-04-27T22:58:36.693Z,9.43
2023-04-27T23:01:40.622Z,9.00
2023-04-27T23:04:44.574Z,9.30
2023-04-27T23:07:48.125Z,10.37
2023-04-27T23:10:53.243Z,10.03
2023-04-27T23:13:58.932Z,10.23
2023-04-27T23:17:02.883Z,10.10
2023-04-27T23:20:24.095Z,9.90
2023-04-27T23:23:30.973Z,10.20
2023-04-27T23:26:34.642Z,10.23
2023-04-27T23:29:39.897Z,10.93
2023-04-27T23:32:43.610Z,9.67
2023-04-27T23:35:47.178Z,11.23
2023-04-27T23:38:51.366Z,11.10
2023-04-27T23:41:55.172Z,10.70
2023-04-27T23:45:00.391Z,11.23
2023-04-27T23:48:04.077Z,10.87
2023-04-27T23:51:08.078Z,11.60
2023-04-27T23:54:11.614Z,10.63
2023-04-27T23:57:16.986Z,10.70
